createdAt,value
2019-01-02T00:00:24.332Z,2.37
2019-01-02T00:02:51.984Z,2.10
2019-01-02T00:05:19.989Z,2.80
2019-01-02T00:07:47.618Z,2.90
2019-01-02T00:10:18.317Z,2.83
2019-01-02T00:12:46.373Z,2.30
2019-01-02T00:15:17.467Z,2.80
2019-01-02T00:17:45.098Z,2.50
2019-01-02T00:20:13.747Z,2.80
2019-01-02T00:22:41.856Z,3.07
2019-01-02T00:25:10.152Z,2.83
2019-01-02T00:27:37.720Z,2.77
2019-01-02T00:30:06.218Z,2.70
2019-01-02T00:32:33.828Z,2.07
2019-01-02T00:35:01.395Z,2.30
2019-01-02T00:37:29.033Z,2.53
2019-01-02T00:39:56.610Z,2.97
2019-01-02T00:42:24.598Z,2.53
2019-01-02T00:44:52.486Z,3.10
2019-01-02T00:47:20.730Z,2.93
2019-01-02T00:50:00.322Z,2.70
2019-01-02T00:52:30.020Z,2.07
2019-01-02T00:54:58.769Z,2.53
2019-01-02T00:57:26.935Z,2.47
2019-01-02T00:59:54.598Z,3.33
2019-01-02T01:02:22.533Z,2.50
2019-01-02T01:04:50.177Z,2.50
2019-01-02T01:07:18.595Z,2.77
2019-01-02T01:09:46.116Z,2.43
2019-01-02T01:12:13.858Z,2.50
2019-01-02T01:14:41.423Z,2.60
2019-01-02T01:17:10.296Z,2.50
2019-01-02T01:19:40.790Z,2.57
2019-01-02T01:22:08.638Z,2.13
2019-01-02T01:24:36.260Z,2.40
2019-01-02T01:27:04.223Z,2.27
2019-01-02T01:29:31.780Z,2.10
2019-01-02T01:32:00.477Z,3.10
2019-01-02T01:34:28.380Z,2.73
2019-01-02T01:36:55.968Z,2.23
2019-01-02T01:39:23.784Z,2.23
2019-01-02T01:41:53.242Z,2.60
2019-01-02T01:44:20.855Z,2.57
2019-01-02T01:46:49.662Z,2.60
2019-01-02T01:49:17.397Z,2.07
2019-01-02T01:51:45.397Z,2.60
2019-01-02T01:54:14.277Z,2.60
2019-01-02T01:56:41.898Z,2.80
2019-01-02T01:59:10.062Z,3.10
2019-01-02T02:01:37.658Z,2.57
2019-01-02T02:04:07.751Z,2.40
2019-01-02T02:06:37.197Z,3.33
2019-01-02T02:09:07.656Z,2.30
2019-01-02T02:11:37.686Z,2.90
2019-01-02T02:14:05.270Z,2.30
2019-01-02T02:16:32.878Z,2.97
2019-01-02T02:19:02.106Z,2.70
2019-01-02T02:21:31.082Z,2.83
2019-01-02T02:23:58.971Z,2.87
2019-01-02T02:26:26.681Z,3.33
2019-01-02T02:28:54.275Z,3.23
2019-01-02T02:31:21.861Z,2.67
2019-01-02T02:33:49.895Z,3.00
2019-01-02T02:36:17.907Z,3.57
2019-01-02T02:38:45.769Z,3.30
2019-01-02T02:41:13.847Z,4.10
2019-01-02T02:43:41.674Z,2.93
2019-01-02T02:46:09.489Z,3.00
2019-01-02T02:48:37.663Z,3.10
2019-01-02T02:51:05.533Z,3.03
2019-01-02T02:53:33.419Z,3.20
2019-01-02T02:56:01.411Z,3.40
2019-01-02T02:58:29.389Z,3.27
2019-01-02T03:00:57.428Z,3.23
2019-01-02T03:03:25.716Z,3.47
2019-01-02T03:05:53.617Z,3.33
2019-01-02T03:08:21.224Z,3.00
2019-01-02T03:10:49.303Z,3.33
2019-01-02T03:13:17.373Z,3.40
2019-01-02T03:15:45.297Z,4.23
2019-01-02T03:18:13.188Z,3.23
2019-01-02T03:20:40.818Z,3.77
2019-01-02T03:23:08.439Z,3.40
2019-01-02T03:25:36.739Z,2.90
2019-01-02T03:28:05.634Z,4.47
2019-01-02T03:30:33.758Z,3.67
2019-01-02T03:33:02.100Z,3.80
2019-01-02T03:35:29.693Z,3.07
2019-01-02T03:37:57.350Z,3.60
2019-01-02T03:40:26.070Z,3.10
2019-01-02T03:42:53.645Z,3.93
2019-01-02T03:45:23.061Z,3.33
2019-01-02T03:47:50.952Z,2.97
2019-01-02T03:50:19.488Z,3.33
2019-01-02T03:52:50.073Z,3.17
2019-01-02T03:55:18.158Z,3.20
2019-01-02T03:57:45.715Z,3.30
2019-01-02T04:00:15.291Z,3.43
2019-01-02T04:02:42.947Z,2.93
2019-01-02T04:05:11.502Z,3.33
2019-01-02T04:07:40.510Z,3.63
2019-01-02T04:10:10.545Z,3.17
2019-01-02T04:12:38.070Z,3.30
2019-01-02T04:15:05.900Z,3.07
2019-01-02T04:17:33.527Z,3.70
2019-01-02T04:20:01.108Z,3.43
2019-01-02T04:22:28.701Z,2.87
2019-01-02T04:24:56.570Z,4.07
2019-01-02T04:27:25.233Z,3.60
2019-01-02T04:29:52.809Z,3.70
2019-01-02T04:32:22.226Z,3.77
2019-01-02T04:34:51.668Z,3.67
2019-01-02T04:37:19.222Z,3.07
2019-01-02T04:39:47.157Z,3.20
2019-01-02T04:42:14.718Z,3.30
2019-01-02T04:44:42.322Z,3.37
2019-01-02T04:47:10.763Z,3.57
2019-01-02T04:49:38.403Z,3.07
2019-01-02T04:52:05.992Z,3.63
2019-01-02T04:54:33.630Z,3.63
2019-01-02T04:57:01.321Z,3.83
2019-01-02T04:59:30.270Z,3.13
2019-01-02T05:01:57.902Z,2.87
2019-01-02T05:04:25.500Z,3.10
2019-01-02T05:06:53.068Z,3.10
2019-01-02T05:09:20.694Z,3.07
2019-01-02T05:11:48.287Z,3.43
2019-01-02T05:14:15.970Z,3.53
2019-01-02T05:16:43.687Z,3.13
2019-01-02T05:19:11.248Z,3.10
2019-01-02T05:21:39.214Z,2.93
2019-01-02T05:24:07.012Z,2.67
2019-01-02T05:26:34.609Z,2.57
2019-01-02T05:29:02.185Z,2.23
2019-01-02T05:31:30.108Z,3.07
2019-01-02T05:34:00.341Z,3.23
2019-01-02T05:36:28.156Z,2.40
2019-01-02T05:38:56.195Z,3.33
2019-01-02T05:41:25.804Z,2.43
2019-01-02T05:43:53.402Z,2.60
2019-01-02T05:46:40.636Z,3.97
2019-01-02T08:00:11.955Z,3.00
2019-01-02T08:03:18.363Z,2.87
2019-01-02T08:06:36.019Z,2.90
2019-01-02T08:09:33.989Z,2.87
2019-01-02T08:12:19.589Z,3.10
2019-01-02T08:15:30.774Z,2.70
2019-01-02T08:18:42.773Z,2.90
2019-01-02T08:22:10.313Z,3.30
2019-01-02T08:25:03.500Z,3.60
2019-01-02T08:28:03.810Z,3.20
2019-01-02T08:30:53.137Z,3.43
2019-01-02T08:33:55.805Z,3.33
2019-01-02T08:36:53.008Z,3.50
2019-01-02T08:40:00.318Z,3.17
2019-01-02T08:43:07.931Z,3.70
2019-01-02T08:46:22.302Z,3.80
2019-01-02T08:49:17.835Z,3.57
2019-01-02T08:52:39.499Z,4.43
2019-01-02T08:55:45.349Z,5.67
2019-01-02T08:58:47.724Z,4.10
2019-01-02T09:02:09.360Z,4.90
2019-01-02T09:05:17.697Z,4.53
2019-01-02T09:08:28.657Z,8.10
2019-01-02T09:11:40.902Z,4.07
2019-01-02T09:14:45.157Z,3.90
2019-01-02T09:17:37.859Z,4.47
2019-01-02T09:20:37.561Z,4.33
2019-01-02T09:23:58.896Z,3.93
2019-01-02T09:27:04.614Z,4.40
2019-01-02T09:30:07.092Z,4.10
2019-01-02T09:33:19.037Z,3.67
2019-01-02T09:36:58.253Z,3.33
2019-01-02T09:40:13.549Z,4.13
2019-01-02T09:43:24.551Z,2.87
2019-01-02T09:46:28.921Z,4.27
2019-01-02T09:49:32.516Z,3.23
2019-01-02T09:52:52.868Z,3.53
2019-01-02T09:55:56.227Z,2.73
2019-01-02T09:59:15.137Z,3.47
2019-01-02T10:02:36.234Z,3.60
2019-01-02T10:05:50.724Z,3.27
2019-01-02T10:08:55.818Z,2.90
2019-01-02T10:12:02.602Z,3.13
2019-01-02T10:14:55.284Z,2.70
2019-01-02T10:17:51.542Z,3.60
2019-01-02T10:21:00.802Z,3.07
2019-01-02T10:24:13.414Z,3.13
2019-01-02T10:27:24.058Z,3.53
2019-01-02T10:30:32.183Z,3.80
2019-01-02T10:33:56.334Z,3.27
2019-01-02T10:37:07.733Z,4.07
2019-01-02T10:40:16.272Z,4.03
2019-01-02T10:43:31.213Z,3.37
2019-01-02T10:46:21.116Z,3.50
2019-01-02T10:49:34.554Z,3.37
2019-01-02T10:52:38.041Z,3.77
2019-01-02T10:55:15.656Z,3.13
2019-01-02T10:58:17.091Z,5.77
2019-01-02T11:00:57.970Z,4.43
2019-01-02T11:03:48.255Z,3.27
2019-01-02T11:06:52.640Z,3.27
2019-01-02T11:10:12.113Z,3.00
2019-01-02T11:13:18.933Z,2.50
2019-01-02T11:16:14.873Z,3.20
2019-01-02T11:19:08.039Z,3.03
2019-01-02T11:22:07.738Z,3.67
2019-01-02T11:25:22.147Z,3.20
2019-01-02T11:28:29.441Z,2.10
2019-01-02T11:31:54.334Z,2.50
2019-01-02T11:35:09.933Z,2.53
2019-01-02T11:38:13.837Z,3.00
2019-01-02T11:41:09.156Z,2.37
2019-01-02T11:44:20.898Z,2.37
2019-01-02T11:46:50.706Z,2.60
2019-01-02T11:49:18.817Z,2.00
2019-01-02T11:51:48.623Z,2.67
2019-01-02T11:54:22.901Z,2.33
2019-01-02T11:56:50.657Z,2.80
2019-01-02T11:59:18.327Z,2.73
2019-01-02T12:01:46.249Z,2.23
2019-01-02T12:04:17.035Z,2.10
2019-01-02T12:06:45.746Z,2.03
2019-01-02T12:09:13.460Z,2.20
2019-01-02T12:11:53.125Z,1.90
2019-01-02T12:14:23.495Z,2.77
2019-01-02T12:16:58.020Z,2.07
2019-01-02T12:19:28.213Z,2.50
2019-01-02T12:21:57.837Z,1.83
2019-01-02T12:24:25.434Z,2.40
2019-01-02T12:26:53.212Z,2.10
2019-01-02T12:29:20.835Z,2.27
2019-01-02T12:31:48.458Z,2.50
2019-01-02T12:34:16.293Z,1.97
2019-01-02T12:36:48.822Z,1.60
2019-01-02T12:39:16.456Z,1.80
2019-01-02T12:41:44.429Z,2.20
2019-01-02T12:44:12.282Z,1.53
2019-01-02T12:46:40.117Z,2.07
2019-01-02T12:49:07.922Z,1.40
2019-01-02T12:51:44.593Z,1.80
2019-01-02T12:54:17.922Z,2.37
2019-01-02T12:56:45.645Z,1.87
2019-01-02T12:59:21.590Z,1.30
2019-01-02T13:02:24.959Z,1.83
2019-01-02T13:05:23.500Z,1.30
2019-01-02T13:08:40.559Z,1.70
2019-01-02T13:11:23.945Z,1.57
2019-01-02T13:14:46.193Z,1.60
2019-01-02T13:17:49.724Z,1.80
2019-01-02T13:21:05.304Z,1.80
2019-01-02T13:24:21.404Z,1.60
2019-01-02T13:27:32.476Z,1.87
2019-01-02T13:30:26.541Z,1.50
2019-01-02T13:33:22.742Z,1.50
2019-01-02T13:36:08.515Z,1.70
2019-01-02T13:38:55.905Z,1.37
2019-01-02T13:42:02.641Z,1.57
2019-01-02T13:45:29.548Z,1.57
2019-01-02T13:48:52.113Z,1.80
2019-01-02T13:51:30.110Z,1.60
2019-01-02T13:54:00.285Z,1.80
2019-01-02T13:56:31.095Z,1.17
2019-01-02T13:58:58.842Z,1.57
2019-01-02T14:01:27.974Z,1.63
2019-01-02T14:03:59.863Z,1.40
2019-01-02T14:06:29.237Z,1.17
2019-01-02T14:08:56.903Z,1.40
2019-01-02T14:11:29.284Z,1.30
2019-01-02T14:13:59.278Z,1.20
2019-01-02T14:16:32.019Z,1.33
2019-01-02T14:18:59.842Z,1.53
2019-01-02T14:21:29.938Z,1.27
2019-01-02T14:23:57.969Z,1.80
2019-01-02T14:26:26.646Z,1.40
2019-01-02T14:28:57.784Z,1.57
2019-01-02T14:31:25.451Z,1.60
2019-01-02T14:33:53.178Z,1.00
2019-01-02T14:36:21.386Z,1.50
2019-01-02T14:38:53.704Z,1.30
2019-01-02T14:41:44.629Z,1.10
2019-01-02T14:44:16.169Z,1.30
2019-01-02T14:46:50.608Z,1.30
2019-01-02T14:49:17.179Z,1.27
2019-01-02T14:51:46.210Z,1.60
2019-01-02T14:54:13.848Z,1.27
2019-01-02T14:56:41.546Z,1.00
2019-01-02T14:59:11.740Z,1.10
2019-01-02T15:01:46.697Z,1.17
2019-01-02T15:04:14.298Z,1.00
2019-01-02T15:06:42.100Z,1.23
2019-01-02T15:09:09.762Z,0.90
2019-01-02T15:11:41.808Z,1.17
2019-01-02T15:14:12.486Z,1.30
2019-01-02T15:16:44.686Z,1.20
2019-01-02T15:19:12.734Z,0.90
2019-01-02T15:21:40.450Z,0.90
2019-01-02T15:24:10.310Z,1.10
2019-01-02T15:26:38.120Z,1.60
2019-01-02T15:29:08.876Z,1.63
2019-01-02T15:45:54.260Z,2.10
2019-01-02T15:51:29.592Z,1.43
2019-01-02T15:54:00.343Z,2.10
2019-01-02T15:56:30.758Z,2.50
2019-01-02T15:59:01.671Z,2.50
2019-01-02T16:01:31.767Z,2.27
2019-01-02T16:04:00.570Z,1.53
2019-01-02T16:06:32.287Z,1.60
2019-01-02T16:08:59.907Z,1.70
2019-01-02T16:11:28.693Z,1.87
2019-01-02T16:13:57.371Z,1.80
2019-01-02T16:16:40.716Z,1.70
2019-01-02T16:19:15.613Z,2.30
2019-01-02T16:21:43.211Z,1.33
2019-01-02T16:24:12.789Z,1.70
2019-01-02T16:26:40.800Z,1.90
2019-01-02T16:29:09.134Z,2.20
2019-01-02T16:31:36.790Z,1.50
2019-01-02T16:34:04.563Z,1.57
2019-01-02T16:36:34.020Z,1.30
2019-01-02T16:39:01.763Z,1.30
2019-01-02T16:41:32.753Z,1.37
2019-01-02T16:44:03.630Z,1.20
2019-01-02T16:46:31.291Z,1.30
2019-01-02T16:49:00.564Z,1.50
2019-01-02T16:51:28.161Z,1.65
2019-01-02T16:53:56.156Z,1.70
2019-01-02T16:56:23.835Z,1.20
2019-01-02T16:58:51.509Z,1.77
2019-01-02T17:01:20.980Z,1.30
2019-01-02T17:03:48.663Z,1.20
2019-01-02T17:06:17.274Z,1.27
2019-01-02T17:08:44.912Z,1.30
2019-01-02T17:11:12.874Z,1.33
2019-01-02T17:13:42.388Z,1.10
2019-01-02T17:16:09.923Z,1.07
2019-01-02T17:18:37.817Z,1.70
2019-01-02T17:21:05.658Z,2.03
2019-01-02T17:23:36.311Z,1.55
2019-01-02T17:26:04.568Z,1.20
2019-01-02T17:28:34.603Z,1.13
2019-01-02T17:31:08.486Z,1.20
2019-01-02T17:33:36.102Z,1.23
2019-01-02T17:36:04.981Z,1.30
2019-01-02T17:38:37.027Z,1.03
2019-01-02T17:41:05.059Z,0.90
2019-01-02T17:43:34.327Z,1.10
2019-01-02T17:46:06.136Z,1.47
2019-01-02T17:48:44.247Z,1.10
2019-01-02T17:51:12.383Z,1.17
2019-01-02T17:53:45.350Z,1.37
2019-01-02T17:56:27.774Z,1.40
2019-01-02T17:58:59.319Z,1.30
2019-01-02T18:01:29.411Z,1.20
2019-01-02T18:03:57.181Z,1.40
2019-01-02T18:06:29.234Z,1.30
2019-01-02T18:09:01.387Z,1.10
2019-01-02T18:11:31.734Z,1.30
2019-01-02T18:13:59.437Z,1.32
2019-01-02T18:16:29.348Z,1.30
2019-01-02T18:18:57.095Z,1.00
2019-01-02T18:21:26.285Z,1.30
2019-01-02T18:23:54.121Z,1.20
2019-01-02T18:26:35.143Z,1.30
2019-01-02T18:29:05.938Z,1.17
2019-01-02T18:31:33.543Z,1.40
2019-01-02T18:34:13.199Z,1.70
2019-01-02T18:36:49.165Z,1.70
2019-01-02T18:39:17.270Z,1.60
2019-01-02T18:41:52.103Z,1.20
2019-01-02T18:44:26.418Z,1.52
2019-01-02T18:46:59.930Z,1.15
2019-01-02T18:49:27.713Z,1.63
2019-01-02T18:52:04.322Z,2.20
2019-01-02T18:54:32.362Z,2.60
2019-01-02T18:57:05.787Z,3.10
2019-01-02T18:59:33.457Z,2.10
2019-01-02T19:02:06.614Z,1.43
2019-01-02T19:04:42.539Z,1.40
2019-01-02T19:07:18.220Z,1.40
2019-01-02T19:09:45.823Z,1.37
2019-01-02T19:12:17.659Z,1.50
2019-01-02T19:14:45.275Z,1.30
2019-01-02T19:17:15.180Z,1.30
2019-01-02T19:19:43.034Z,1.23
2019-01-02T19:22:11.985Z,1.50
2019-01-02T19:24:40.003Z,1.50
2019-01-02T19:27:10.826Z,1.20
2019-01-02T19:29:56.631Z,1.30
2019-01-02T19:32:24.523Z,1.40
2019-01-02T19:35:00.775Z,1.20
2019-01-02T19:37:33.211Z,1.10
2019-01-02T19:40:00.839Z,1.40
2019-01-02T19:42:29.433Z,1.93
2019-01-02T19:45:01.417Z,1.40
2019-01-02T19:47:30.050Z,1.40
2019-01-02T19:50:00.973Z,1.40
2019-01-02T19:52:33.124Z,1.27
2019-01-02T19:55:04.736Z,1.37
2019-01-02T19:57:35.826Z,1.70
2019-01-02T20:00:04.395Z,1.20
2019-01-02T20:02:32.262Z,1.40
2019-01-02T20:05:00.048Z,1.70
2019-01-02T20:07:27.593Z,1.40
2019-01-02T20:10:06.284Z,1.37
2019-01-02T20:12:37.073Z,1.17
2019-01-02T20:15:07.994Z,1.60
2019-01-02T20:17:38.858Z,1.10
2019-01-02T20:20:06.176Z,1.50
2019-01-02T20:22:33.730Z,1.20
2019-01-02T20:25:05.210Z,1.52
2019-01-02T20:27:32.913Z,1.62
2019-01-02T20:30:00.693Z,1.30
2019-01-02T20:32:28.816Z,1.35
2019-01-02T20:34:56.400Z,1.15
2019-01-02T20:37:34.234Z,1.50
2019-01-02T20:40:12.413Z,1.20
2019-01-02T20:42:44.549Z,1.50
2019-01-02T20:45:13.467Z,1.32
2019-01-02T20:47:47.957Z,1.80
2019-01-02T20:50:34.638Z,1.37
2019-01-02T20:53:05.110Z,1.57
2019-01-02T20:55:32.737Z,1.65
2019-01-02T20:58:01.929Z,1.42
2019-01-02T21:00:30.826Z,1.40
2019-01-02T21:02:58.644Z,1.30
2019-01-02T21:05:29.267Z,1.55
2019-01-02T21:07:56.839Z,1.37
2019-01-02T21:10:24.462Z,1.10
2019-01-02T21:12:54.358Z,1.30
2019-01-02T21:15:22.013Z,1.42
2019-01-02T21:17:49.607Z,1.20
2019-01-02T21:20:17.415Z,1.12
2019-01-02T21:22:49.070Z,1.35
2019-01-02T21:25:16.894Z,1.20
2019-01-02T21:27:53.449Z,1.52
2019-01-02T21:30:23.444Z,1.60
2019-01-02T21:32:53.951Z,1.17
2019-01-02T21:35:21.680Z,1.17
2019-01-02T21:37:49.317Z,1.60
2019-01-02T21:40:21.081Z,1.30
2019-01-02T21:42:48.670Z,1.87
2019-01-02T21:45:16.793Z,1.35
2019-01-02T21:47:44.677Z,2.10
2019-01-02T21:50:12.681Z,1.70
2019-01-02T21:52:41.717Z,1.35
2019-01-02T21:55:14.034Z,1.23
2019-01-02T21:57:40.372Z,1.17
2019-01-02T22:00:13.823Z,1.50
2019-01-02T22:02:45.482Z,1.40
2019-01-02T22:05:14.366Z,1.35
2019-01-02T22:07:44.810Z,1.47
2019-01-02T22:10:15.716Z,1.57
2019-01-02T22:12:45.369Z,1.22
2019-01-02T22:15:13.742Z,1.50
2019-01-02T22:17:41.358Z,1.52
2019-01-02T22:20:09.145Z,1.70
2019-01-02T22:22:38.008Z,1.50
2019-01-02T22:25:06.512Z,1.52
2019-01-02T22:27:34.086Z,1.50
2019-01-02T22:30:02.296Z,1.62
2019-01-02T22:32:32.934Z,1.82
2019-01-02T22:35:00.707Z,1.70
2019-01-02T22:37:28.889Z,1.30
2019-01-02T22:39:56.484Z,1.45
2019-01-02T22:42:32.125Z,1.52
2019-01-02T22:44:59.892Z,1.70
2019-01-02T22:47:31.646Z,1.42
2019-01-02T22:50:00.349Z,1.30
2019-01-02T22:52:35.049Z,1.50
2019-01-02T22:55:09.744Z,1.37
2019-01-02T22:57:37.413Z,1.50
2019-01-02T23:00:21.557Z,1.25
2019-01-02T23:02:59.988Z,1.20
2019-01-02T23:05:38.940Z,1.70
2019-01-02T23:08:36.011Z,1.65
2019-01-02T23:11:40.965Z,1.40
2019-01-02T23:14:24.227Z,1.47
2019-01-02T23:17:23.698Z,1.40
2019-01-02T23:20:09.151Z,1.20
2019-01-02T23:22:54.850Z,1.40
2019-01-02T23:25:47.810Z,1.47
2019-01-02T23:28:33.462Z,1.40
2019-01-02T23:31:32.300Z,1.40
2019-01-02T23:34:20.107Z,1.80
2019-01-02T23:37:07.172Z,1.65
2019-01-02T23:40:06.705Z,1.57
2019-01-02T23:43:01.261Z,1.50
2019-01-02T23:45:48.982Z,1.60
2019-01-02T23:48:51.440Z,1.25
2019-01-02T23:51:51.051Z,1.90
2019-01-02T23:54:56.255Z,2.00
2019-01-02T23:57:42.098Z,1.42
